Time;durP1;ratioP1;P1;durP2;ratioP2;P2;SDS_P1;SDS_P2;PMS_P1;PMS_P2;Temp;Humidity;BMP_temperature;BMP_pressure;BME280_temperature;BME280_humidity;BME280_pressure;Samples;Min_cycle;Max_cycle;Signal;HPM_P1;HPM_P2
2022/07/10 00:03:11;;;;;;;7.72;4.88;;;;;;;18.09;100.00;101084.13;20887575;28;20067;-68
2022/07/10 00:13:13;;;;;;;8.47;5.33;;;;;;;18.01;100.00;101072.91;20900564;28;20408;-68
2022/07/10 00:23:15;;;;;;;7.43;5.13;;;;;;;17.71;100.00;101061.59;20902793;28;20048;-68
2022/07/10 00:33:16;;;;;;;6.82;5.10;;;;;;;17.40;100.00;101064.44;20900870;28;20037;-68
2022/07/10 00:43:18;;;;;;;7.00;5.20;;;;;;;17.12;100.00;101072.41;20984044;28;20156;-68
2022/07/10 00:53:19;;;;;;;7.85;5.20;;;;;;;17.04;100.00;101079.72;20962213;28;20043;-68
2022/07/10 01:03:21;;;;;;;6.95;4.30;;;;;;;17.08;100.00;101076.91;20899916;28;20045;-68
2022/07/10 01:13:22;;;;;;;6.82;3.58;;;;;;;17.06;100.00;101068.19;20898990;28;20045;-68
2022/07/10 01:23:24;;;;;;;5.05;3.03;;;;;;;17.15;100.00;101075.81;20898325;28;20049;-68
2022/07/10 01:33:25;;;;;;;5.75;2.70;;;;;;;17.05;100.00;101077.00;20896811;28;20037;-68
2022/07/10 01:43:27;;;;;;;5.25;2.33;;;;;;;16.86;100.00;101086.44;20896736;28;20075;-68
2022/07/10 01:53:28;;;;;;;4.90;2.53;;;;;;;16.68;100.00;101087.84;20896076;28;20048;-68
2022/07/10 02:13:50;;;;;;;7.15;2.35;;;;;;;16.22;100.00;101112.09;20972898;28;20052;-68
2022/07/10 02:23:52;;;;;;;8.68;2.20;;;;;;;16.23;100.00;101116.44;20976328;28;20456;-68
2022/07/10 02:33:53;;;;;;;6.03;2.70;;;;;;;16.03;100.00;101123.16;20973605;28;20044;-69
2022/07/10 02:43:55;;;;;;;6.05;2.42;;;;;;;15.94;100.00;101122.53;20928099;28;20037;-68
2022/07/10 02:53:56;;;;;;;6.50;2.30;;;;;;;15.85;100.00;101128.91;20891244;28;20044;-68
2022/07/10 03:03:58;;;;;;;6.18;2.30;;;;;;;15.60;100.00;101120.72;20890112;28;20057;-67
2022/07/10 03:13:59;;;;;;;4.82;1.88;;;;;;;15.47;100.00;101129.81;20890148;28;20049;-67
2022/07/10 03:24:01;;;;;;;11.13;2.30;;;;;;;15.40;100.00;101126.47;20889757;28;20071;-67
2022/07/10 03:34:03;;;;;;;6.97;1.83;;;;;;;15.36;100.00;101132.72;20885941;28;20490;-68
2022/07/10 03:44:05;;;;;;;5.90;1.90;;;;;;;15.18;100.00;101133.16;20896602;28;20490;-68
2022/07/10 03:54:07;;;;;;;5.97;2.00;;;;;;;15.18;100.00;101128.75;20906086;28;20769;-68
2022/07/10 04:04:08;;;;;;;6.60;1.92;;;;;;;15.30;100.00;101144.31;20904336;28;20063;-68
2022/07/10 04:14:10;;;;;;;7.00;2.30;;;;;;;15.24;100.00;101143.59;20903811;28;20037;-68
2022/07/10 04:24:12;;;;;;;6.00;2.05;;;;;;;15.26;100.00;101147.03;20903268;28;20049;-68
2022/07/10 04:34:13;;;;;;;7.25;2.03;;;;;;;15.58;100.00;101138.38;20902337;28;20563;-68
2022/07/10 04:44:15;;;;;;;8.32;1.80;;;;;;;16.49;100.00;101134.25;20901969;28;20049;-68
2022/07/10 04:54:16;;;;;;;6.68;1.88;;;;;;;16.85;98.00;101140.25;20900380;28;20041;-68
2022/07/10 05:04:18;;;;;;;5.53;1.63;;;;;;;16.07;100.00;101159.16;20899952;28;20049;-68
2022/07/10 05:14:20;;;;;;;5.25;1.80;;;;;;;15.88;100.00;101163.16;20977455;28;20046;-68
2022/07/10 05:24:21;;;;;;;5.30;1.88;;;;;;;15.90;100.00;101171.91;20981344;28;20542;-68
2022/07/10 05:34:23;;;;;;;10.93;2.03;;;;;;;16.11;100.00;101171.38;20979936;28;20094;-68
2022/07/10 05:44:25;;;;;;;6.80;2.17;;;;;;;16.17;100.00;101181.75;20979930;28;20071;-68
2022/07/10 05:54:26;;;;;;;9.27;2.33;;;;;;;16.24;98.86;101181.59;20978770;28;20044;-68
2022/07/10 06:04:28;;;;;;;7.75;2.08;;;;;;;16.27;92.82;101197.38;20976533;28;20550;-68
2022/07/10 06:14:29;;;;;;;5.50;1.50;;;;;;;16.41;89.36;101189.94;20976835;28;20084;-68
2022/07/10 06:24:31;;;;;;;7.80;2.15;;;;;;;16.34;87.45;101214.81;20938094;28;20049;-69
2022/07/10 06:34:32;;;;;;;4.95;1.20;;;;;;;16.54;83.26;101217.78;20892677;28;20037;-70
2022/07/10 06:44:34;;;;;;;4.40;1.25;;;;;;;16.60;76.04;101225.56;20891385;28;20044;-69
2022/07/10 06:54:35;;;;;;;4.10;1.20;;;;;;;16.66;77.69;101213.94;20894733;28;20264;-69
2022/07/10 07:04:37;;;;;;;5.65;1.23;;;;;;;16.53;77.70;101218.72;20891581;28;20063;-70
2022/07/10 07:14:38;;;;;;;5.95;1.30;;;;;;;16.54;76.00;101214.28;20898420;28;20044;-69
2022/07/10 07:24:45;;;;;;;5.25;1.30;;;;;;;16.70;75.30;101217.38;20934448;28;20040;-69
2022/07/10 07:34:46;;;;;;;5.88;1.00;;;;;;;16.83;73.03;101219.66;20927470;28;20489;-69
2022/07/10 07:44:47;;;;;;;4.43;0.82;;;;;;;16.57;71.63;101228.25;20923324;28;20449;-69
2022/07/10 07:54:50;;;;;;;4.13;1.00;;;;;;;17.52;63.54;101220.22;20892757;28;20049;-70
2022/07/10 08:04:52;;;;;;;2.70;0.68;;;;;;;17.75;61.19;101227.47;20884534;28;20107;-70
2022/07/10 08:14:53;;;;;;;3.47;0.80;;;;;;;17.73;56.85;101220.47;20884089;28;20037;-70
2022/07/10 08:24:56;;;;;;;3.75;0.65;;;;;;;17.98;54.24;101202.88;20885175;28;20049;-69
2022/07/10 08:34:59;;;;;;;4.07;1.15;;;;;;;18.06;54.66;101222.06;20896724;28;20044;-69
2022/07/10 08:45:00;;;;;;;2.40;0.77;;;;;;;17.87;53.54;101199.72;20898080;28;20057;-68
2022/07/10 08:55:02;;;;;;;4.47;0.65;;;;;;;17.92;51.91;101196.00;20897023;28;20114;-70
2022/07/10 09:05:06;;;;;;;3.63;1.00;;;;;;;18.44;51.51;101196.88;20895428;28;20045;-69
2022/07/10 09:15:16;;;;;;;4.87;0.90;;;;;;;17.77;51.72;101201.78;20895710;28;20741;-70
2022/07/10 09:25:17;;;;;;;4.40;0.82;;;;;;;18.62;48.81;101195.31;20894736;28;20056;-69
2022/07/10 09:45:39;;;;;;;4.25;0.98;;;;;;;18.42;47.55;101219.03;20975477;28;20044;-70
2022/07/10 09:55:44;;;;;;;1.58;0.55;;;;;;;18.65;46.65;101197.00;20975639;28;20040;-70
2022/07/10 10:05:53;;;;;;;3.70;0.88;;;;;;;18.95;45.00;101189.72;20973818;28;20044;-70
2022/07/10 10:15:55;;;;;;;4.63;0.70;;;;;;;19.34;44.71;101189.09;20919754;28;20044;-70
2022/07/10 10:25:57;;;;;;;4.20;0.70;;;;;;;19.42;42.87;101181.72;20891191;28;20053;-70
2022/07/10 10:35:59;;;;;;;5.03;0.80;;;;;;;19.43;43.86;101162.19;20888781;28;20601;-70
2022/07/10 10:46:25;;;;;;;3.00;0.85;;;;;;;19.85;42.15;101151.63;20889833;28;20482;-70
2022/07/10 10:56:26;;;;;;;3.80;0.98;;;;;;;19.93;42.17;101154.81;20967999;28;20489;-70
2022/07/10 11:06:45;;;;;;;4.28;1.65;;;;;;;19.82;42.01;101125.16;20887670;28;20076;-70
2022/07/10 11:16:47;;;;;;;5.03;1.20;;;;;;;19.89;42.45;101144.38;20887050;28;20051;-70
2022/07/10 11:27:30;;;;;;;4.03;0.63;;;;;;;20.35;41.72;101123.75;20887176;28;20140;-70
2022/07/10 11:37:32;;;;;;;3.80;0.70;;;;;;;20.46;41.13;101121.50;20957774;28;20037;-75
2022/07/10 11:47:38;;;;;;;6.13;0.70;;;;;;;20.30;42.25;101123.09;20887137;28;20049;-73
2022/07/10 11:57:41;;;;;;;4.28;0.70;;;;;;;20.42;40.28;101118.09;20885713;28;20049;-70
2022/07/10 12:07:42;;;;;;;3.88;0.80;;;;;;;20.71;40.78;101106.16;20894674;28;20056;-71
2022/07/10 12:17:53;;;;;;;4.47;0.80;;;;;;;20.89;40.03;101106.22;20900474;28;20037;-70
2022/07/10 12:27:57;;;;;;;4.45;0.70;;;;;;;20.99;39.97;101096.88;20979653;28;20485;-70
2022/07/10 12:37:59;;;;;;;4.27;0.80;;;;;;;20.87;40.20;101097.44;20981167;28;20190;-71
2022/07/10 12:48:04;;;;;;;3.67;0.80;;;;;;;20.93;39.89;101097.13;20981217;28;20136;-71
2022/07/10 12:58:08;;;;;;;6.57;1.00;;;;;;;21.29;40.67;101088.31;20980068;28;20477;-71
2022/07/10 13:08:14;;;;;;;5.20;1.08;;;;;;;21.88;39.63;101079.13;20979412;28;20060;-70
2022/07/10 13:18:21;;;;;;;3.33;1.17;;;;;;;22.01;39.26;101073.06;20904616;28;20825;-71
2022/07/10 13:28:23;;;;;;;4.00;0.90;;;;;;;22.72;37.95;101064.81;20974687;28;20051;-70
2022/07/10 13:38:25;;;;;;;5.90;0.90;;;;;;;22.07;39.35;101077.22;20976329;28;20467;-70
2022/07/10 13:48:28;;;;;;;4.85;1.20;;;;;;;22.20;39.61;101074.81;20976412;28;20059;-71
2022/07/10 13:58:29;;;;;;;7.43;1.40;;;;;;;22.51;39.55;101071.31;20975870;28;20041;-71
2022/07/10 14:08:31;;;;;;;3.47;1.17;;;;;;;22.66;39.81;101070.50;20973703;28;20044;-68
2022/07/10 14:18:37;;;;;;;3.28;1.15;;;;;;;22.37;39.67;101073.88;20898996;28;20511;-68
2022/07/10 14:28:40;;;;;;;4.85;1.13;;;;;;;23.43;39.02;101064.34;20889575;28;20109;-68
2022/07/10 14:38:42;;;;;;;6.30;1.15;;;;;;;22.88;39.92;101070.16;20889489;28;20406;-68
2022/07/10 14:48:44;;;;;;;2.83;0.85;;;;;;;22.44;40.92;101059.28;20889737;28;20049;-69
2022/07/10 14:58:46;;;;;;;4.75;1.38;;;;;;;22.35;40.59;101060.63;20892286;28;20051;-69
2022/07/10 15:09:07;;;;;;;4.20;1.13;;;;;;;22.12;42.08;101066.34;20968887;28;21754;-68
2022/07/10 15:19:10;;;;;;;3.75;0.90;;;;;;;21.84;42.79;101075.75;20888982;28;20048;-68
2022/07/10 15:29:12;;;;;;;5.72;1.00;;;;;;;21.49;43.24;101069.56;20886002;28;20049;-69
2022/07/10 15:39:14;;;;;;;3.65;0.90;;;;;;;21.74;43.32;101067.34;20892010;28;20037;-69
2022/07/10 15:49:16;;;;;;;3.30;1.08;;;;;;;21.80;43.22;101057.31;20902971;28;20083;-68
2022/07/10 15:59:22;;;;;;;3.78;0.95;;;;;;;21.65;44.32;101058.97;20981245;28;20463;-68
2022/07/10 16:09:24;;;;;;;3.28;0.85;;;;;;;21.48;45.40;101054.53;20978753;28;20048;-68
2022/07/10 16:19:26;;;;;;;6.25;1.75;;;;;;;21.37;46.55;101044.41;20908174;23;20045;-76
2022/07/10 16:29:29;;;;;;;5.82;0.80;;;;;;;21.33;47.14;101044.66;20903368;28;20679;-76
2022/07/10 16:39:31;;;;;;;2.40;0.75;;;;;;;21.68;45.36;101034.84;20900570;28;20041;-73
2022/07/10 16:49:32;;;;;;;3.53;0.70;;;;;;;21.08;46.65;101037.84;20898957;28;20044;-75
2022/07/10 16:59:34;;;;;;;2.08;0.65;;;;;;;20.69;46.92;101041.47;20899073;28;20045;-75
2022/07/10 17:09:36;;;;;;;2.38;0.55;;;;;;;21.04;47.29;101044.25;20898378;28;20741;-75
2022/07/10 17:19:37;;;;;;;4.20;0.88;;;;;;;21.12;47.76;101039.38;20897979;28;20501;-75
2022/07/10 17:29:39;;;;;;;1.85;0.50;;;;;;;21.07;48.29;101045.88;20897451;28;20049;-72
2022/07/10 17:39:40;;;;;;;2.45;0.60;;;;;;;21.22;48.52;101051.34;20895580;28;20052;-73
2022/07/10 17:49:42;;;;;;;2.17;0.57;;;;;;;20.99;50.69;101054.25;20895174;28;20044;-74
2022/07/10 17:59:43;;;;;;;2.28;0.70;;;;;;;21.34;49.35;101047.22;20894494;28;20049;-74
2022/07/10 18:09:45;;;;;;;4.32;0.65;;;;;;;21.19;49.49;101051.47;20892515;28;20505;-73
2022/07/10 18:19:46;;;;;;;1.08;0.50;;;;;;;20.96;51.99;101041.94;20891656;28;20052;-73
2022/07/10 18:29:48;;;;;;;1.33;0.60;;;;;;;20.69;52.73;101049.44;20891352;28;20270;-73
2022/07/10 18:39:49;;;;;;;1.88;0.65;;;;;;;20.57;53.33;101047.38;20888887;28;20037;-73
2022/07/10 18:49:51;;;;;;;3.10;0.60;;;;;;;20.50;53.95;101048.59;20890268;28;20079;-73
2022/07/10 18:59:52;;;;;;;1.23;0.60;;;;;;;20.40;54.57;101056.09;20890348;28;20044;-73
2022/07/10 19:09:54;;;;;;;2.65;0.75;;;;;;;20.20;56.29;101069.44;20888596;28;20045;-73
2022/07/10 19:19:55;;;;;;;3.85;0.80;;;;;;;19.93;58.06;101076.84;20888364;28;20911;-74
2022/07/10 19:29:58;;;;;;;5.10;1.20;;;;;;;19.88;59.26;101084.16;20888131;28;20513;-73
2022/07/10 19:40:00;;;;;;;3.28;1.40;;;;;;;19.62;62.30;101095.91;20887265;28;20041;-75
2022/07/10 19:50:02;;;;;;;7.13;1.60;;;;;;;19.47;63.77;101105.38;20886441;28;20060;-75
2022/07/10 20:00:05;;;;;;;3.97;2.30;;;;;;;19.19;66.39;101116.22;20885961;28;20049;-74
2022/07/10 20:10:07;;;;;;;8.07;2.70;;;;;;;18.90;69.61;101125.34;20885941;28;20072;-76
2022/07/10 20:20:09;;;;;;;7.57;2.63;;;;;;;18.63;72.19;101122.78;20885198;28;20049;-76
2022/07/10 20:30:11;;;;;;;4.63;2.40;;;;;;;18.49;73.72;101125.06;20896244;28;20056;-76
2022/07/10 20:40:15;;;;;;;3.92;2.20;;;;;;;18.46;74.83;101125.22;20900917;28;20048;-76
2022/07/10 20:50:20;;;;;;;3.65;2.13;;;;;;;18.36;76.23;101113.22;20899188;28;20076;-77
2022/07/10 21:00:21;;;;;;;4.65;2.03;;;;;;;18.42;77.31;101124.44;20898730;28;20049;-75
2022/07/10 21:10:41;;;;;;;7.90;2.28;;;;;;;18.30;78.73;101121.38;20899822;28;20045;-75
2022/07/10 21:20:42;;;;;;;3.53;2.20;;;;;;;18.32;79.80;101132.81;20897479;28;20045;-77
2022/07/10 21:30:44;;;;;;;4.28;2.35;;;;;;;18.36;80.39;101123.81;20896665;28;20041;-76
2022/07/10 21:40:45;;;;;;;5.13;2.35;;;;;;;18.23;82.33;101114.56;20896514;28;20502;-77
2022/07/10 21:50:47;;;;;;;4.30;2.45;;;;;;;18.18;82.42;101107.66;20894940;28;20041;-76
2022/07/10 22:00:48;;;;;;;4.63;2.67;;;;;;;18.23;82.92;101106.63;20894480;28;20039;-77
2022/07/10 22:10:50;;;;;;;5.40;2.92;;;;;;;18.11;84.78;101105.25;20896906;28;20044;-77
2022/07/10 22:20:51;;;;;;;5.80;2.95;;;;;;;18.16;84.54;101090.94;20956211;23;20045;-72
2022/07/10 22:41:16;;;;;;;4.20;2.40;;;;;;;18.02;86.81;101085.28;20811457;28;20132;-69
2022/07/10 22:51:18;;;;;;;5.35;3.28;;;;;;;18.01;87.66;101080.88;20892062;28;20464;-70
2022/07/10 23:01:20;;;;;;;4.80;2.50;;;;;;;18.01;88.94;101080.88;20891946;28;20045;-69
2022/07/10 23:11:22;;;;;;;5.25;2.85;;;;;;;17.87;88.81;101083.13;20878315;28;20529;-70
2022/07/10 23:21:24;;;;;;;5.38;3.00;;;;;;;17.78;91.34;101083.50;20808306;28;20044;-69
2022/07/10 23:31:25;;;;;;;7.00;3.00;;;;;;;17.79;91.14;101077.25;20807679;28;20060;-70
2022/07/10 23:41:27;;;;;;;5.10;3.17;;;;;;;17.73;92.33;101070.41;20807399;28;20038;-70
2022/07/10 23:51:29;;;;;;;6.32;2.97;;;;;;;17.83;92.07;101065.66;20807822;28;20046;-70
